createdAt,value
2019-03-01T00:02:30.256Z,36.03
2019-03-01T00:05:44.648Z,36.43
2019-03-01T00:08:55.175Z,35.83
2019-03-01T00:11:52.120Z,38.17
2019-03-01T00:14:56.714Z,35.23
2019-03-01T00:18:20.110Z,36.57
2019-03-01T00:21:38.665Z,37.03
2019-03-01T00:24:50.975Z,34.97
2019-03-01T00:28:14.182Z,36.40
2019-03-01T00:31:43.984Z,33.30
2019-03-01T00:35:20.349Z,35.67
2019-03-01T00:38:25.740Z,34.37
2019-03-01T00:41:50.024Z,36.00
2019-03-01T00:44:41.263Z,36.53
2019-03-01T00:47:27.162Z,36.23
2019-03-01T00:50:13.115Z,38.00
2019-03-01T00:52:59.036Z,36.33
2019-03-01T00:55:45.248Z,35.90
2019-03-01T00:58:31.395Z,36.30
2019-03-01T01:01:17.056Z,33.13
2019-03-01T01:04:03.412Z,34.37
2019-03-01T01:06:49.282Z,34.37
2019-03-01T01:09:35.076Z,34.60
2019-03-01T01:12:21.415Z,34.77
2019-03-01T01:15:07.557Z,35.17
2019-03-01T01:17:53.324Z,34.20
2019-03-01T01:20:39.471Z,33.57
2019-03-01T01:23:25.260Z,34.47
2019-03-01T01:26:11.756Z,33.37
2019-03-01T01:28:57.995Z,33.23
2019-03-01T01:31:43.498Z,31.63
2019-03-01T01:34:29.431Z,33.70
2019-03-01T01:37:15.498Z,32.33
2019-03-01T01:40:01.253Z,32.63
2019-03-01T01:42:47.242Z,33.07
2019-03-01T01:45:33.276Z,34.10
2019-03-01T01:48:19.055Z,35.80
2019-03-01T01:51:05.068Z,35.37
2019-03-01T01:53:51.236Z,35.43
2019-03-01T01:56:37.086Z,34.37
2019-03-01T01:59:23.344Z,35.00
2019-03-01T02:02:09.316Z,36.37
2019-03-01T02:04:54.978Z,38.17
2019-03-01T02:07:40.768Z,37.57
2019-03-01T02:10:27.099Z,37.20
2019-03-01T02:13:13.172Z,35.13
2019-03-01T02:15:59.263Z,38.50
2019-03-01T02:18:45.499Z,38.70
2019-03-01T02:21:31.161Z,36.73
2019-03-01T02:24:16.870Z,35.23
2019-03-01T02:27:30.572Z,38.27
2019-03-01T02:30:18.663Z,37.67
2019-03-01T02:33:04.800Z,36.97
2019-03-01T02:35:50.483Z,37.90
2019-03-01T02:38:36.311Z,38.53
2019-03-01T02:41:22.170Z,39.17
2019-03-01T02:44:07.719Z,38.13
2019-03-01T02:46:53.496Z,38.80
2019-03-01T02:49:40.033Z,39.70
2019-03-01T02:52:25.731Z,37.77
2019-03-01T02:55:12.845Z,38.93
2019-03-01T02:57:59.131Z,40.63
2019-03-01T03:00:44.661Z,39.93
2019-03-01T03:03:30.781Z,43.00
2019-03-01T03:06:35.058Z,44.73
2019-03-01T03:09:21.142Z,45.90
2019-03-01T03:12:07.055Z,45.13
2019-03-01T03:14:53.178Z,44.03
2019-03-01T03:17:38.702Z,46.00
2019-03-01T03:20:24.609Z,47.23
2019-03-01T03:23:10.699Z,45.47
2019-03-01T03:25:56.654Z,45.27
2019-03-01T03:28:42.539Z,46.63
2019-03-01T03:31:28.775Z,44.53
2019-03-01T03:34:14.544Z,45.80
2019-03-01T03:37:00.299Z,44.90
2019-03-01T03:39:46.665Z,46.27
2019-03-01T03:42:32.818Z,45.43
2019-03-01T03:45:18.821Z,47.73
2019-03-01T03:48:04.927Z,45.83
2019-03-01T03:50:50.553Z,46.77
2019-03-01T03:53:36.543Z,45.27
2019-03-01T03:56:23.315Z,48.50
2019-03-01T03:59:09.322Z,47.83
2019-03-01T04:01:55.131Z,47.73
2019-03-01T04:04:41.413Z,48.93
2019-03-01T04:07:27.298Z,47.70
2019-03-01T04:10:13.067Z,48.90
2019-03-01T04:12:59.282Z,46.77
2019-03-01T04:15:45.091Z,46.60
2019-03-01T04:18:31.098Z,50.43
2019-03-01T04:21:17.149Z,47.43
2019-03-01T04:24:02.783Z,47.00
2019-03-01T04:26:48.818Z,47.70
2019-03-01T04:29:35.250Z,47.67
2019-03-01T04:32:20.940Z,50.57
2019-03-01T04:35:06.820Z,48.20
2019-03-01T04:37:52.931Z,52.40
2019-03-01T04:40:39.196Z,46.93
2019-03-01T04:43:24.900Z,51.00
2019-03-01T04:46:11.346Z,51.40
2019-03-01T04:48:57.360Z,51.77
2019-03-01T04:51:43.190Z,52.40
2019-03-01T04:54:29.322Z,52.93
2019-03-01T04:57:14.777Z,52.13
2019-03-01T05:00:00.745Z,51.70
2019-03-01T05:02:47.478Z,49.60
2019-03-01T05:05:33.302Z,54.83
2019-03-01T05:08:19.189Z,54.63
2019-03-01T05:11:05.441Z,50.60
2019-03-01T05:13:51.003Z,54.17
2019-03-01T05:16:36.970Z,52.30
2019-03-01T05:19:23.280Z,51.77
2019-03-01T05:22:09.411Z,52.33
2019-03-01T05:24:55.298Z,53.97
2019-03-01T05:27:41.065Z,55.57
2019-03-01T05:30:27.169Z,52.30
2019-03-01T05:33:13.105Z,53.67
2019-03-01T05:35:59.497Z,48.37
2019-03-01T05:38:45.594Z,55.30
2019-03-01T05:41:31.774Z,53.07
2019-03-01T05:44:17.842Z,50.30
2019-03-01T05:47:03.730Z,50.37
2019-03-01T05:49:49.528Z,49.20
2019-03-01T05:52:35.807Z,53.73
2019-03-01T05:55:21.598Z,53.43
2019-03-01T05:59:01.681Z,49.00
2019-03-01T06:02:16.409Z,51.73
2019-03-01T06:05:12.068Z,46.80
2019-03-01T06:08:10.710Z,50.47
2019-03-01T06:11:18.238Z,46.60
2019-03-01T06:14:44.118Z,50.53
2019-03-01T06:18:02.706Z,48.83
2019-03-01T06:21:24.842Z,46.60
2019-03-01T06:24:45.616Z,46.67
2019-03-01T06:28:05.887Z,50.50
2019-03-01T06:31:18.677Z,50.10
2019-03-01T06:34:29.926Z,52.10
2019-03-01T06:37:27.384Z,50.87
2019-03-01T06:40:39.411Z,46.27
2019-03-01T06:44:06.852Z,44.77
2019-03-01T06:47:13.658Z,50.87
2019-03-01T06:50:22.178Z,46.80
2019-03-01T06:53:07.951Z,49.57
2019-03-01T06:56:01.522Z,48.60
2019-03-01T06:58:49.555Z,49.30
2019-03-01T07:01:41.508Z,44.70
2019-03-01T07:04:27.402Z,48.30
2019-03-01T07:07:13.073Z,47.43
2019-03-01T07:09:59.059Z,46.27
2019-03-01T07:12:44.894Z,47.20
2019-03-01T07:15:30.729Z,47.63
2019-03-01T07:18:16.661Z,46.10
2019-03-01T07:21:02.842Z,42.77
2019-03-01T07:23:48.487Z,43.67
2019-03-01T07:26:34.814Z,45.63
2019-03-01T07:29:20.930Z,46.20
2019-03-01T07:32:07.352Z,42.93
2019-03-01T07:34:53.423Z,43.37
2019-03-01T07:37:39.047Z,40.80
2019-03-01T07:40:24.965Z,46.60
2019-03-01T07:43:11.083Z,43.60
2019-03-01T07:45:57.119Z,45.10
2019-03-01T07:48:43.011Z,43.57
2019-03-01T07:51:30.743Z,41.97
2019-03-01T07:54:18.093Z,42.03
2019-03-01T07:57:03.829Z,41.50
2019-03-01T07:59:50.018Z,39.93
2019-03-01T08:02:39.489Z,39.70
2019-03-01T08:05:23.196Z,39.83
2019-03-01T08:08:09.671Z,38.63
2019-03-01T08:10:56.411Z,38.17
2019-03-01T08:13:43.257Z,38.07
2019-03-01T08:16:29.551Z,38.80
2019-03-01T08:19:17.092Z,40.83
2019-03-01T08:22:03.223Z,40.53
2019-03-01T08:24:49.596Z,40.17
2019-03-01T08:27:35.644Z,41.10
2019-03-01T08:30:21.531Z,39.93
2019-03-01T08:33:08.250Z,44.90
2019-03-01T08:35:54.096Z,40.43
2019-03-01T08:38:40.240Z,38.97
2019-03-01T08:41:26.362Z,38.50
2019-03-01T08:44:11.823Z,40.47
2019-03-01T08:46:58.193Z,41.77
2019-03-01T08:49:44.233Z,40.17
2019-03-01T08:52:30.369Z,42.03
2019-03-01T08:55:17.165Z,40.67
2019-03-01T08:58:06.872Z,42.13
2019-03-01T09:00:59.333Z,45.70
2019-03-01T09:03:42.766Z,40.23
2019-03-01T09:06:29.150Z,40.67
2019-03-01T09:09:17.616Z,42.17
2019-03-01T09:12:02.410Z,41.70
2019-03-01T09:14:49.230Z,40.67
2019-03-01T09:17:35.177Z,40.57
2019-03-01T09:20:21.366Z,45.30
2019-03-01T09:23:19.608Z,44.80
2019-03-01T09:25:55.410Z,43.33
2019-03-01T09:28:43.432Z,38.03
2019-03-01T09:31:29.935Z,37.87
2019-03-01T09:34:16.781Z,43.37
2019-03-01T09:37:02.641Z,39.70
2019-03-01T09:39:50.463Z,41.10
2019-03-01T09:42:35.926Z,37.70
2019-03-01T09:45:22.011Z,38.93
2019-03-01T09:48:08.807Z,39.40
2019-03-01T09:50:55.738Z,35.47
2019-03-01T09:53:42.069Z,37.43
2019-03-01T09:56:28.326Z,38.83
2019-03-01T09:59:14.245Z,40.10
2019-03-01T10:02:02.322Z,40.57
2019-03-01T10:04:48.275Z,39.40
2019-03-01T10:07:34.594Z,40.40
2019-03-01T10:10:22.591Z,41.23
2019-03-01T10:13:08.523Z,40.40
2019-03-01T10:15:54.755Z,43.83
2019-03-01T10:18:40.797Z,43.60
2019-03-01T10:21:27.111Z,41.37
2019-03-01T10:24:13.463Z,39.37
2019-03-01T10:26:59.786Z,39.60
2019-03-01T10:29:45.582Z,38.47
2019-03-01T10:32:31.958Z,39.30
2019-03-01T10:35:18.357Z,37.23
2019-03-01T10:38:03.990Z,36.37
2019-03-01T10:40:50.001Z,32.33
2019-03-01T10:43:36.418Z,29.97
2019-03-01T10:46:22.208Z,30.23
2019-03-01T10:49:08.440Z,33.23
2019-03-01T10:51:54.498Z,32.10
2019-03-01T10:54:40.386Z,32.43
2019-03-01T10:57:26.708Z,33.23
2019-03-01T11:00:20.368Z,32.37
2019-03-01T11:03:05.870Z,35.03
2019-03-01T11:05:53.044Z,34.80
2019-03-01T11:08:39.288Z,36.93
2019-03-01T11:11:25.411Z,34.30
2019-03-01T11:14:10.904Z,35.07
2019-03-01T11:16:57.231Z,34.73
2019-03-01T11:19:43.306Z,38.03
2019-03-01T11:22:29.354Z,42.03
2019-03-01T11:25:15.354Z,44.20
2019-03-01T11:28:01.030Z,47.93
2019-03-01T11:30:46.946Z,49.97
2019-03-01T11:33:32.986Z,54.83
2019-03-01T11:36:20.090Z,50.63
2019-03-01T11:39:06.110Z,50.37
2019-03-01T11:41:51.903Z,53.90
2019-03-01T11:44:38.170Z,56.30
2019-03-01T11:47:23.859Z,52.77
2019-03-01T11:50:12.230Z,51.60
2019-03-01T11:52:57.964Z,52.20
2019-03-01T11:55:43.942Z,51.00
2019-03-01T11:58:29.784Z,48.33
2019-03-01T12:01:17.478Z,50.63
2019-03-01T12:04:03.843Z,52.23
2019-03-01T12:06:49.966Z,49.07
2019-03-01T12:09:36.022Z,50.07
2019-03-01T12:12:21.663Z,39.93
2019-03-01T12:15:07.714Z,35.77
2019-03-01T12:17:53.952Z,32.57
2019-03-01T12:20:40.000Z,34.53
2019-03-01T12:23:25.994Z,34.33
2019-03-01T12:26:12.602Z,32.60
2019-03-01T12:28:58.503Z,29.80
2019-03-01T12:31:44.465Z,34.80
2019-03-01T12:34:30.563Z,32.67
2019-03-01T12:37:16.723Z,27.33
2019-03-01T12:40:03.156Z,26.77
2019-03-01T12:42:49.197Z,28.33
2019-03-01T12:45:35.357Z,26.33
2019-03-01T12:48:21.180Z,23.00
2019-03-01T12:51:06.871Z,24.33
2019-03-01T12:53:52.436Z,22.03
2019-03-01T12:56:37.772Z,21.37
2019-03-01T12:59:23.368Z,19.53
2019-03-01T13:02:08.839Z,19.50
2019-03-01T13:04:54.530Z,18.80
2019-03-01T13:07:40.763Z,19.87
2019-03-01T13:10:26.893Z,19.67
2019-03-01T13:13:12.779Z,20.37
2019-03-01T13:15:58.506Z,19.87
2019-03-01T13:18:47.556Z,19.90
2019-03-01T13:21:32.063Z,20.83
2019-03-01T13:24:17.830Z,20.10
2019-03-01T13:27:05.946Z,19.90
2019-03-01T13:29:55.244Z,18.13
2019-03-01T13:32:39.871Z,19.73
2019-03-01T13:35:25.946Z,20.07
2019-03-01T13:38:13.111Z,20.40
2019-03-01T13:41:01.737Z,19.93
2019-03-01T13:43:46.061Z,20.07
2019-03-01T13:46:33.429Z,20.97
2019-03-01T13:49:19.378Z,19.90
2019-03-01T13:52:04.814Z,21.23
2019-03-01T13:54:53.129Z,21.07
2019-03-01T13:57:39.048Z,21.37
2019-03-01T14:00:24.491Z,20.53
2019-03-01T14:03:10.601Z,20.50
2019-03-01T14:05:56.332Z,21.63
2019-03-01T14:08:42.578Z,21.00
2019-03-01T14:11:28.445Z,21.20
2019-03-01T14:14:13.731Z,20.63
2019-03-01T14:16:59.027Z,22.90
2019-03-01T14:19:44.847Z,21.97
2019-03-01T14:22:30.590Z,21.97
2019-03-01T14:25:16.006Z,21.23
2019-03-01T14:28:02.170Z,20.83
2019-03-01T14:30:49.009Z,21.73
2019-03-01T14:33:34.376Z,21.13
2019-03-01T14:36:20.043Z,20.63
2019-03-01T14:39:14.937Z,21.53
2019-03-01T14:42:00.535Z,21.47
2019-03-01T14:44:48.021Z,19.53
2019-03-01T14:47:35.358Z,18.90
2019-03-01T14:50:22.148Z,20.23
2019-03-01T14:53:07.759Z,18.93
2019-03-01T14:55:58.893Z,18.60
2019-03-01T14:58:58.906Z,18.67
2019-03-01T15:02:22.102Z,18.87
2019-03-01T15:05:16.731Z,18.53
2019-03-01T15:07:54.765Z,19.33
2019-03-01T15:10:40.811Z,20.37
2019-03-01T15:13:27.852Z,19.13
2019-03-01T15:16:13.434Z,19.67
2019-03-01T15:18:59.064Z,20.87
2019-03-01T15:21:44.844Z,18.40
2019-03-01T15:24:33.275Z,19.20
2019-03-01T15:27:18.312Z,19.83
2019-03-01T15:30:09.287Z,19.97
2019-03-01T15:32:54.648Z,19.00
2019-03-01T15:35:40.709Z,19.90
2019-03-01T15:38:27.609Z,17.77
2019-03-01T15:41:14.512Z,17.27
2019-03-01T15:44:00.081Z,17.70
2019-03-01T15:46:46.353Z,15.63
2019-03-01T15:49:33.174Z,14.33
2019-03-01T15:52:19.313Z,15.13
2019-03-01T15:55:07.704Z,15.57
2019-03-01T15:57:56.392Z,14.20
2019-03-01T16:00:40.919Z,14.80
2019-03-01T16:03:26.777Z,14.37
2019-03-01T16:06:17.200Z,14.03
2019-03-01T16:09:00.018Z,14.37
2019-03-01T16:11:46.123Z,13.47
2019-03-01T16:14:31.412Z,12.90
2019-03-01T16:17:17.577Z,12.37
2019-03-01T16:20:05.861Z,11.43
2019-03-01T16:22:54.037Z,12.23
2019-03-01T16:25:43.876Z,12.00
2019-03-01T16:28:31.122Z,12.13
2019-03-01T16:31:16.976Z,12.77
2019-03-01T16:34:04.399Z,12.27
2019-03-01T16:36:53.200Z,11.67
2019-03-01T16:39:39.068Z,11.50
2019-03-01T16:42:24.756Z,12.70
2019-03-01T16:45:11.069Z,11.70
2019-03-01T16:47:57.062Z,12.40
2019-03-01T16:50:44.027Z,9.70
2019-03-01T16:53:30.145Z,10.70
2019-03-01T16:56:15.829Z,11.87
2019-03-01T16:59:03.727Z,12.30
2019-03-01T17:01:48.915Z,11.57
2019-03-01T17:04:35.005Z,10.83
2019-03-01T17:07:25.130Z,10.13
2019-03-01T17:10:10.482Z,10.07
2019-03-01T17:12:56.667Z,11.40
2019-03-01T17:15:42.326Z,11.27
2019-03-01T17:18:28.001Z,9.20
2019-03-01T17:21:15.866Z,10.20
2019-03-01T17:24:01.268Z,10.07
2019-03-01T17:26:47.158Z,9.60
2019-03-01T17:29:35.766Z,9.37
2019-03-01T17:32:19.767Z,8.63
2019-03-01T17:35:06.518Z,9.33
2019-03-01T17:40:55.674Z,9.17
2019-03-01T17:43:42.537Z,10.00
2019-03-01T17:46:29.811Z,11.37
2019-03-01T17:49:18.508Z,10.93
2019-03-01T17:52:05.552Z,10.30
2019-03-01T17:55:04.633Z,11.33
2019-03-01T17:57:51.785Z,10.07
2019-03-01T18:00:44.090Z,8.57
2019-03-01T18:03:31.173Z,9.00
2019-03-01T18:06:18.123Z,10.03
2019-03-01T18:09:05.854Z,9.03
2019-03-01T18:11:51.994Z,9.60
2019-03-01T18:14:39.105Z,9.37
2019-03-01T18:17:25.625Z,10.37
2019-03-01T18:20:25.467Z,8.00
2019-03-01T18:23:12.438Z,8.40
2019-03-01T18:25:59.584Z,9.17
2019-03-01T18:28:48.323Z,8.80
2019-03-01T18:31:35.619Z,8.87
2019-03-01T18:34:21.958Z,10.77
2019-03-01T18:37:19.110Z,10.60
2019-03-01T18:40:02.759Z,11.60
2019-03-01T18:42:50.506Z,11.47
2019-03-01T18:45:41.806Z,11.03
2019-03-01T18:48:26.419Z,9.90
2019-03-01T18:51:12.635Z,9.57
2019-03-01T18:54:00.629Z,10.97
2019-03-01T18:56:46.942Z,11.57
2019-03-01T18:59:33.003Z,10.40
2019-03-01T19:02:19.755Z,10.17
2019-03-01T19:05:06.864Z,11.80
2019-03-01T19:07:53.011Z,10.77
2019-03-01T19:10:40.623Z,8.83
2019-03-01T19:13:37.492Z,7.83
2019-03-01T19:16:25.415Z,8.37
2019-03-01T19:19:13.945Z,8.43
2019-03-01T19:22:00.378Z,7.93
2019-03-01T19:24:46.856Z,8.03
2019-03-01T19:27:34.938Z,8.60
2019-03-01T19:30:25.271Z,8.13
2019-03-01T19:33:11.478Z,8.60
2019-03-01T19:36:00.687Z,9.27
2019-03-01T19:38:46.521Z,10.10
2019-03-01T19:41:33.075Z,11.93
2019-03-01T19:44:19.396Z,11.60
2019-03-01T19:47:06.022Z,8.27
2019-03-01T19:49:52.115Z,7.90
2019-03-01T19:52:38.788Z,7.23
2019-03-01T19:55:24.903Z,7.27
2019-03-01T19:58:11.916Z,7.40
2019-03-01T20:00:59.501Z,6.80
2019-03-01T20:03:46.297Z,7.67
2019-03-01T20:06:32.921Z,8.30
2019-03-01T20:09:19.795Z,7.23
2019-03-01T20:12:06.284Z,6.93
2019-03-01T20:14:52.467Z,7.33
2019-03-01T20:17:44.368Z,6.93
2019-03-01T20:20:29.995Z,7.90
2019-03-01T20:23:17.651Z,8.90
2019-03-01T20:26:03.963Z,8.17
2019-03-01T20:28:55.339Z,9.63
2019-03-01T20:31:41.759Z,7.53
2019-03-01T20:34:28.798Z,9.10
2019-03-01T20:37:16.876Z,10.00
2019-03-01T20:40:06.053Z,9.67
2019-03-01T20:42:55.914Z,8.53
2019-03-01T20:45:40.957Z,8.80
2019-03-01T20:48:28.981Z,8.67
2019-03-01T20:51:17.614Z,9.70
2019-03-01T20:54:04.477Z,8.17
2019-03-01T20:56:52.736Z,8.77
2019-03-01T20:59:39.970Z,8.00
2019-03-01T21:02:26.192Z,8.47
2019-03-01T21:05:12.953Z,9.00
2019-03-01T21:07:59.746Z,10.67
2019-03-01T21:10:46.809Z,10.50
2019-03-01T21:13:34.046Z,9.57
2019-03-01T21:16:22.021Z,9.47
2019-03-01T21:19:09.648Z,9.13
2019-03-01T21:21:56.014Z,8.70
2019-03-01T21:24:43.031Z,9.37
2019-03-01T21:27:29.214Z,9.73
2019-03-01T21:30:20.659Z,8.17
2019-03-01T21:33:05.897Z,7.63
2019-03-01T21:35:52.269Z,6.80
2019-03-01T21:38:38.213Z,5.93
2019-03-01T21:41:26.953Z,6.10
2019-03-01T21:44:13.630Z,6.17
2019-03-01T21:46:59.809Z,6.83
2019-03-01T21:49:48.963Z,6.40
2019-03-01T21:52:35.296Z,5.57
2019-03-01T21:55:24.959Z,4.93
2019-03-01T21:58:11.018Z,5.20
2019-03-01T22:00:57.485Z,5.37
2019-03-01T22:03:44.467Z,5.20
2019-03-01T22:06:31.084Z,5.07
2019-03-01T22:09:20.688Z,5.03
2019-03-01T22:12:07.388Z,5.17
2019-03-01T22:14:53.693Z,4.33
2019-03-01T22:24:08.244Z,5.00
2019-03-01T22:26:55.368Z,4.83
2019-03-01T22:29:43.547Z,4.87
2019-03-01T22:32:30.103Z,5.20
2019-03-01T22:35:16.368Z,4.97
2019-03-01T22:38:04.559Z,5.07
2019-03-01T22:40:51.052Z,5.43
2019-03-01T22:43:37.469Z,4.90
2019-03-01T22:46:25.758Z,5.33
2019-03-01T22:49:20.645Z,5.10
2019-03-01T22:52:06.961Z,5.10
2019-03-01T22:54:53.417Z,5.13
2019-03-01T22:57:44.725Z,5.47
2019-03-01T23:01:20.580Z,5.50
2019-03-01T23:04:06.956Z,5.17
2019-03-01T23:06:52.901Z,6.03
2019-03-01T23:09:42.626Z,6.53
2019-03-01T23:12:30.117Z,6.33
2019-03-01T23:15:16.228Z,6.97
2019-03-01T23:18:05.654Z,6.30
2019-03-01T23:20:51.042Z,5.63
2019-03-01T23:23:39.049Z,6.40
2019-03-01T23:26:26.627Z,6.73
2019-03-01T23:29:15.614Z,6.43
2019-03-01T23:32:01.069Z,7.17
2019-03-01T23:34:47.805Z,5.63
2019-03-01T23:37:35.624Z,5.87
2019-03-01T23:40:21.873Z,5.83
2019-03-01T23:43:10.823Z,6.00
2019-03-01T23:45:56.727Z,6.37
2019-03-01T23:48:45.587Z,6.00
2019-03-01T23:51:30.668Z,6.17
2019-03-01T23:54:16.583Z,7.10
2019-03-01T23:57:05.703Z,6.40
2019-03-01T23:59:50.773Z,7.20
